createdAt,value
2022-11-04T00:00:43.885Z,7.20
2022-11-04T00:01:43.791Z,6.80
2022-11-04T00:02:43.923Z,6.80
2022-11-04T00:03:43.739Z,7.70
2022-11-04T00:04:43.716Z,6.80
2022-11-04T00:05:43.697Z,6.50
2022-11-04T00:06:43.674Z,6.90
2022-11-04T00:07:43.651Z,8.60
2022-11-04T00:08:43.641Z,8.50
2022-11-04T00:09:43.603Z,8.50
2022-11-04T00:10:43.579Z,6.90
2022-11-04T00:11:43.551Z,7.70
2022-11-04T00:12:43.529Z,8.10
2022-11-04T00:13:43.504Z,8.30
2022-11-04T00:14:43.492Z,7.60
2022-11-04T00:15:43.456Z,5.90
2022-11-04T00:16:43.429Z,5.40
2022-11-04T00:17:43.406Z,5.50
2022-11-04T00:18:43.383Z,5.10
2022-11-04T00:19:43.361Z,6.20
2022-11-04T00:20:43.337Z,5.70
2022-11-04T00:21:43.316Z,5.40
2022-11-04T00:22:43.289Z,4.40
2022-11-04T00:23:43.265Z,5.10
2022-11-04T00:24:43.258Z,5.90
2022-11-04T00:25:43.221Z,5.50
2022-11-04T00:26:43.194Z,4.50
2022-11-04T00:27:43.169Z,5.20
2022-11-04T00:28:43.145Z,5.50
2022-11-04T00:29:43.126Z,5.40
2022-11-04T00:30:43.099Z,4.50
2022-11-04T00:31:43.076Z,6.50
2022-11-04T00:32:43.047Z,5.90
2022-11-04T00:33:43.025Z,4.90
2022-11-04T00:34:43.001Z,5.60
2022-11-04T00:35:42.974Z,5.00
2022-11-04T00:36:42.948Z,4.90
2022-11-04T00:37:42.929Z,5.40
2022-11-04T00:38:42.910Z,5.00
2022-11-04T00:39:42.881Z,5.40
2022-11-04T00:40:42.876Z,4.60
2022-11-04T00:41:42.834Z,4.90
2022-11-04T00:42:42.817Z,4.10
2022-11-04T00:43:42.790Z,5.40
2022-11-04T00:44:42.764Z,5.70
2022-11-04T00:45:42.740Z,6.00
2022-11-04T00:46:42.716Z,5.00
2022-11-04T00:47:42.695Z,5.80
2022-11-04T00:48:42.666Z,5.40
2022-11-04T00:49:42.647Z,4.80
2022-11-04T00:50:42.616Z,4.80
2022-11-04T00:51:42.596Z,5.30
2022-11-04T00:52:42.573Z,5.30
2022-11-04T00:53:42.557Z,4.80
2022-11-04T00:54:42.527Z,4.20
2022-11-04T00:55:42.497Z,4.70
2022-11-04T00:56:42.491Z,5.20
2022-11-04T00:57:42.453Z,5.10
2022-11-04T00:58:42.425Z,5.30
2022-11-04T00:59:42.402Z,5.40
2022-11-04T01:00:42.377Z,5.50
2022-11-04T01:01:42.513Z,5.20
2022-11-04T01:02:42.444Z,4.80
2022-11-04T01:03:42.309Z,5.10
2022-11-04T01:04:42.283Z,5.10
2022-11-04T01:05:42.257Z,4.90
2022-11-04T01:06:42.235Z,4.70
2022-11-04T01:07:43.847Z,4.90
2022-11-04T01:08:42.190Z,5.30
2022-11-04T01:09:42.162Z,4.80
2022-11-04T01:10:42.138Z,5.20
2022-11-04T01:11:42.117Z,4.80
2022-11-04T01:12:42.111Z,5.00
2022-11-04T01:13:42.063Z,6.10
2022-11-04T01:14:42.039Z,4.90
2022-11-04T01:15:42.015Z,5.30
2022-11-04T01:16:41.995Z,4.90
2022-11-04T01:17:41.967Z,4.80
2022-11-04T01:18:41.944Z,6.00
2022-11-04T01:19:41.923Z,5.60
2022-11-04T01:20:41.898Z,5.60
2022-11-04T01:21:41.871Z,5.50
2022-11-04T01:22:41.847Z,5.50
2022-11-04T01:23:41.825Z,6.60
2022-11-04T01:24:41.798Z,5.20
2022-11-04T01:25:41.779Z,5.80
2022-11-04T01:26:41.752Z,4.90
2022-11-04T01:27:41.729Z,7.10
2022-11-04T01:28:41.725Z,5.50
2022-11-04T01:29:41.679Z,5.30
2022-11-04T01:30:41.653Z,6.60
2022-11-04T01:31:41.631Z,6.00
2022-11-04T01:32:41.605Z,6.10
2022-11-04T01:33:41.589Z,6.40
2022-11-04T01:34:43.493Z,5.10
2022-11-04T01:35:41.537Z,6.30
2022-11-04T01:36:41.508Z,6.10
2022-11-04T01:37:41.486Z,5.70
2022-11-04T01:38:41.462Z,6.30
2022-11-04T01:39:41.444Z,6.50
2022-11-04T01:40:41.419Z,6.90
2022-11-04T01:41:41.390Z,6.80
2022-11-04T01:42:41.370Z,6.50
2022-11-04T01:43:41.350Z,6.50
2022-11-04T01:44:41.355Z,6.30
2022-11-04T01:45:41.295Z,6.70
2022-11-04T01:46:41.270Z,7.00
2022-11-04T01:47:41.255Z,9.10
2022-11-04T01:48:41.216Z,6.90
2022-11-04T01:49:43.481Z,6.70
2022-11-04T01:50:41.171Z,6.40
2022-11-04T01:51:41.149Z,7.20
2022-11-04T01:52:41.127Z,7.80
2022-11-04T01:53:41.104Z,6.80
2022-11-04T01:54:41.073Z,7.90
2022-11-04T01:55:41.068Z,7.00
2022-11-04T01:56:41.037Z,6.80
2022-11-04T01:57:41.005Z,7.10
2022-11-04T01:58:40.983Z,7.20
2022-11-04T01:59:40.952Z,6.60
2022-11-04T02:00:40.954Z,7.00
2022-11-04T02:01:41.007Z,6.20
2022-11-04T02:02:40.952Z,7.00
2022-11-04T02:03:40.859Z,6.90
2022-11-04T02:04:40.828Z,9.00
2022-11-04T02:05:40.812Z,7.20
2022-11-04T02:06:40.783Z,6.00
2022-11-04T02:07:40.760Z,7.60
2022-11-04T02:08:40.729Z,6.20
2022-11-04T02:09:40.710Z,6.10
2022-11-04T02:10:40.682Z,6.50
2022-11-04T02:11:40.658Z,7.80
2022-11-04T02:12:40.637Z,6.00
2022-11-04T02:13:40.609Z,7.00
2022-11-04T02:14:40.586Z,6.00
2022-11-04T02:15:40.566Z,6.20
2022-11-04T02:16:40.556Z,6.20
2022-11-04T02:17:40.513Z,6.60
2022-11-04T02:18:40.491Z,6.30
2022-11-04T02:19:40.467Z,5.80
2022-11-04T02:20:40.438Z,7.10
2022-11-04T02:21:40.425Z,6.20
2022-11-04T02:22:40.398Z,7.20
2022-11-04T02:23:40.371Z,6.40
2022-11-04T02:24:40.348Z,5.90
2022-11-04T02:25:40.325Z,6.60
2022-11-04T02:26:40.296Z,6.30
2022-11-04T02:27:40.277Z,6.00
2022-11-04T02:28:40.269Z,6.80
2022-11-04T02:29:40.223Z,7.40
2022-11-04T02:30:40.201Z,6.40
2022-11-04T02:31:40.177Z,7.00
2022-11-04T02:32:40.168Z,6.50
2022-11-04T02:33:40.125Z,7.20
2022-11-04T02:34:40.103Z,6.80
2022-11-04T02:35:40.082Z,7.20
2022-11-04T02:36:40.053Z,6.80
2022-11-04T02:37:40.114Z,6.50
2022-11-04T02:38:40.001Z,8.40
2022-11-04T02:39:39.985Z,7.20
2022-11-04T02:40:39.958Z,7.10
2022-11-04T02:41:39.933Z,6.30
2022-11-04T02:42:39.908Z,7.40
2022-11-04T02:43:39.881Z,6.70
2022-11-04T02:44:39.859Z,6.20
2022-11-04T02:45:39.842Z,6.10
2022-11-04T02:46:39.810Z,7.40
2022-11-04T02:47:39.782Z,7.10
2022-11-04T02:48:39.778Z,6.70
2022-11-04T02:49:39.738Z,7.00
2022-11-04T02:50:39.709Z,7.40
2022-11-04T02:51:39.688Z,7.10
2022-11-04T02:52:39.660Z,7.20
2022-11-04T02:53:39.641Z,7.10
2022-11-04T02:54:39.610Z,8.60
2022-11-04T02:55:39.588Z,7.20
2022-11-04T02:56:39.565Z,7.30
2022-11-04T02:57:39.543Z,7.40
2022-11-04T02:58:39.517Z,8.30
2022-11-04T02:59:39.492Z,8.00
2022-11-04T03:00:39.464Z,7.70
2022-11-04T03:01:39.541Z,8.20
2022-11-04T03:02:39.421Z,8.00
2022-11-04T03:03:39.393Z,7.70
2022-11-04T03:04:39.386Z,8.40
2022-11-04T03:05:39.343Z,8.20
2022-11-04T03:06:39.317Z,9.80
2022-11-04T03:07:39.294Z,8.80
2022-11-04T03:08:39.270Z,8.20
2022-11-04T03:09:39.248Z,8.10
2022-11-04T03:10:39.220Z,8.90
2022-11-04T03:11:39.203Z,9.70
2022-11-04T03:12:39.173Z,9.60
2022-11-04T03:13:39.158Z,8.90
2022-11-04T03:14:39.123Z,8.70
2022-11-04T03:15:39.106Z,9.80
2022-11-04T03:16:39.078Z,9.30
2022-11-04T03:17:39.053Z,9.40
2022-11-04T03:18:39.035Z,8.50
2022-11-04T03:19:39.008Z,9.70
2022-11-04T03:20:38.995Z,8.90
2022-11-04T03:21:38.957Z,8.60
2022-11-04T03:22:38.937Z,9.30
2022-11-04T03:23:38.905Z,8.80
2022-11-04T03:24:38.880Z,8.30
2022-11-04T03:25:38.858Z,9.60
2022-11-04T03:26:38.832Z,9.70
2022-11-04T03:27:38.810Z,9.30
2022-11-04T03:28:38.781Z,8.60
2022-11-04T03:29:38.765Z,9.70
2022-11-04T03:30:38.734Z,8.80
2022-11-04T03:31:38.710Z,8.70
2022-11-04T03:32:38.685Z,8.40
2022-11-04T03:33:38.663Z,8.40
2022-11-04T03:34:38.635Z,8.90
2022-11-04T03:35:38.617Z,9.20
2022-11-04T03:36:38.609Z,9.60
2022-11-04T03:37:38.562Z,9.70
2022-11-04T03:38:38.542Z,9.50
2022-11-04T03:39:38.511Z,8.50
2022-11-04T03:40:38.493Z,10.60
2022-11-04T03:41:38.467Z,9.00
2022-11-04T03:42:38.440Z,8.60
2022-11-04T03:43:38.416Z,9.60
2022-11-04T03:44:38.395Z,8.20
2022-11-04T03:45:38.370Z,8.80
2022-11-04T03:46:38.345Z,9.30
2022-11-04T03:47:38.322Z,9.90
2022-11-04T03:48:38.296Z,10.10
2022-11-04T03:49:38.273Z,8.10
2022-11-04T03:50:38.245Z,8.50
2022-11-04T03:51:38.225Z,8.60
2022-11-04T03:52:38.217Z,9.20
2022-11-04T03:53:38.178Z,9.20
2022-11-04T03:54:38.147Z,9.50
2022-11-04T03:55:38.125Z,10.50
2022-11-04T03:56:38.101Z,8.60
2022-11-04T03:57:38.082Z,9.50
2022-11-04T03:58:38.057Z,8.60
2022-11-04T03:59:38.030Z,8.70
2022-11-04T04:00:38.006Z,9.80
2022-11-04T04:01:38.094Z,9.10
2022-11-04T04:02:37.954Z,9.70
2022-11-04T04:03:37.928Z,7.80
2022-11-04T04:04:37.907Z,12.30
2022-11-04T04:05:37.884Z,9.70
2022-11-04T04:06:37.859Z,10.80
2022-11-04T04:07:37.834Z,8.30
2022-11-04T04:08:37.824Z,8.80
2022-11-04T04:09:37.790Z,10.40
2022-11-04T04:10:37.762Z,10.10
2022-11-04T04:11:37.740Z,9.20
2022-11-04T04:12:37.709Z,9.90
2022-11-04T04:13:37.687Z,9.00
2022-11-04T04:14:37.678Z,8.60
2022-11-04T04:15:37.636Z,10.10
2022-11-04T04:16:37.612Z,11.50
2022-11-04T04:17:37.593Z,8.90
2022-11-04T04:18:37.565Z,9.40
2022-11-04T04:19:37.536Z,9.10
2022-11-04T04:20:37.521Z,9.60
2022-11-04T04:21:37.491Z,8.90
2022-11-04T04:22:37.470Z,9.70
2022-11-04T04:23:37.442Z,6.90
2022-11-04T04:24:37.437Z,9.60
2022-11-04T04:25:37.400Z,9.60
2022-11-04T04:26:37.369Z,7.60
2022-11-04T04:27:37.348Z,9.80
2022-11-04T04:28:37.319Z,8.40
2022-11-04T04:29:37.300Z,9.70
2022-11-04T04:30:37.272Z,8.80
2022-11-04T04:31:37.245Z,9.10
2022-11-04T04:32:37.223Z,9.20
2022-11-04T04:33:37.200Z,8.40
2022-11-04T04:34:37.177Z,8.80
2022-11-04T04:35:37.149Z,9.90
2022-11-04T04:36:37.123Z,9.50
2022-11-04T04:37:37.101Z,9.30
2022-11-04T04:38:37.077Z,8.70
2022-11-04T04:39:37.049Z,9.40
2022-11-04T04:40:37.047Z,11.10
2022-11-04T04:41:37.010Z,10.50
2022-11-04T04:42:36.980Z,8.30
2022-11-04T04:43:36.957Z,9.50
2022-11-04T04:44:36.934Z,9.70
2022-11-04T04:45:36.911Z,8.50
2022-11-04T04:46:36.883Z,10.00
2022-11-04T04:47:36.860Z,9.80
2022-11-04T04:48:36.837Z,7.60
2022-11-04T04:49:36.807Z,10.90
2022-11-04T04:50:36.780Z,9.80
2022-11-04T04:51:36.761Z,8.00
2022-11-04T04:52:36.738Z,9.70
2022-11-04T04:53:36.711Z,10.10
2022-11-04T04:54:36.686Z,9.60
2022-11-04T04:55:40.688Z,7.40
2022-11-04T04:56:36.663Z,9.30
2022-11-04T04:57:36.615Z,8.70
2022-11-04T04:58:36.589Z,9.50
2022-11-04T04:59:36.574Z,7.70
2022-11-04T05:00:36.554Z,9.50
2022-11-04T05:01:36.646Z,7.30
2022-11-04T05:02:36.568Z,8.40
2022-11-04T05:03:41.028Z,8.90
2022-11-04T05:04:36.449Z,8.50
2022-11-04T05:05:36.419Z,9.20
2022-11-04T05:06:36.395Z,9.20
2022-11-04T05:07:36.375Z,8.60
2022-11-04T05:08:36.345Z,8.20
2022-11-04T05:09:36.322Z,7.70
2022-11-04T05:10:36.309Z,9.70
2022-11-04T05:11:36.277Z,9.00
2022-11-04T05:12:36.271Z,9.20
2022-11-04T05:13:36.225Z,7.90
2022-11-04T05:14:36.201Z,9.90
2022-11-04T05:15:36.174Z,10.40
2022-11-04T05:16:40.580Z,8.50
2022-11-04T05:17:36.126Z,9.10
2022-11-04T05:18:36.101Z,8.40
2022-11-04T05:19:36.080Z,10.50
2022-11-04T05:20:36.057Z,7.80
2022-11-04T05:21:36.029Z,8.20
2022-11-04T05:22:36.212Z,9.10
2022-11-04T05:23:35.986Z,9.40
2022-11-04T05:24:35.964Z,7.60
2022-11-04T05:25:35.936Z,7.80
2022-11-04T05:26:35.908Z,8.60
2022-11-04T05:27:35.882Z,9.50
2022-11-04T05:28:35.872Z,9.90
2022-11-04T05:29:35.837Z,7.70
2022-11-04T05:30:35.808Z,9.60
2022-11-04T05:31:35.786Z,9.70
2022-11-04T05:32:35.763Z,9.00
2022-11-04T05:33:35.735Z,9.80
2022-11-04T05:34:35.712Z,10.30
2022-11-04T05:35:35.693Z,8.50
2022-11-04T05:36:35.669Z,10.50
2022-11-04T05:37:35.642Z,8.10
2022-11-04T05:38:35.614Z,10.00
2022-11-04T05:39:35.585Z,8.40
2022-11-04T05:40:35.568Z,9.90
2022-11-04T05:41:35.541Z,9.30
2022-11-04T05:42:35.520Z,9.30
2022-11-04T05:43:35.488Z,9.10
2022-11-04T05:44:35.485Z,10.40
2022-11-04T05:45:35.437Z,9.00
2022-11-04T05:46:35.419Z,10.20
2022-11-04T05:47:35.394Z,7.30
2022-11-04T05:48:40.366Z,11.30
2022-11-04T05:49:35.347Z,11.00
2022-11-04T05:50:35.317Z,10.20
2022-11-04T05:51:35.293Z,8.10
2022-11-04T05:52:35.273Z,9.50
2022-11-04T05:53:35.248Z,9.10
2022-11-04T05:54:35.222Z,9.80
2022-11-04T05:55:35.199Z,8.50
2022-11-04T05:56:35.171Z,8.60
2022-11-04T05:57:35.144Z,8.30
2022-11-04T05:58:35.123Z,8.70
2022-11-04T05:59:35.103Z,8.90
2022-11-04T06:00:35.095Z,10.00
2022-11-04T06:01:35.109Z,6.90
2022-11-04T06:02:35.105Z,8.30
2022-11-04T06:03:35.003Z,11.10
2022-11-04T06:04:34.982Z,8.30
2022-11-04T06:05:34.950Z,10.60
2022-11-04T06:06:34.933Z,9.10
2022-11-04T06:07:34.902Z,11.70
2022-11-04T06:08:34.880Z,11.70
2022-11-04T06:09:34.855Z,8.70
2022-11-04T06:10:34.828Z,11.10
2022-11-04T06:11:34.804Z,9.10
2022-11-04T06:12:34.786Z,10.40
2022-11-04T06:13:34.755Z,8.50
2022-11-04T06:14:34.740Z,8.10
2022-11-04T06:15:34.703Z,10.20
2022-11-04T06:16:34.703Z,12.40
2022-11-04T06:17:34.659Z,9.90
2022-11-04T06:18:34.635Z,9.90
2022-11-04T06:19:34.610Z,10.50
2022-11-04T06:20:34.583Z,8.50
2022-11-04T06:21:34.560Z,12.80
2022-11-04T06:22:34.535Z,8.60
2022-11-04T06:23:34.512Z,10.90
2022-11-04T06:24:34.488Z,10.90
2022-11-04T06:25:34.461Z,10.00
2022-11-04T06:26:34.437Z,10.90
2022-11-04T06:27:34.411Z,10.80
2022-11-04T06:28:34.392Z,8.90
2022-11-04T06:29:34.375Z,9.30
2022-11-04T06:30:34.344Z,8.70
2022-11-04T06:31:34.322Z,10.00
2022-11-04T06:32:34.317Z,10.50
2022-11-04T06:33:36.952Z,13.00
2022-11-04T06:34:34.252Z,10.10
2022-11-04T06:35:34.222Z,10.20
2022-11-04T06:36:34.198Z,10.30
2022-11-04T06:37:34.177Z,10.90
2022-11-04T06:38:34.149Z,10.40
2022-11-04T06:39:34.121Z,8.60
2022-11-04T06:40:34.100Z,9.90
2022-11-04T06:41:34.076Z,9.20
2022-11-04T06:42:34.056Z,12.50
2022-11-04T06:43:34.024Z,10.10
2022-11-04T06:44:34.020Z,12.20
2022-11-04T06:45:33.982Z,11.40
2022-11-04T06:46:33.954Z,10.50
2022-11-04T06:47:33.931Z,9.20
2022-11-04T06:48:33.921Z,10.30
2022-11-04T06:49:33.882Z,10.10
2022-11-04T06:50:33.859Z,10.60
2022-11-04T06:51:33.838Z,9.70
2022-11-04T06:52:38.043Z,11.30
2022-11-04T06:53:33.786Z,11.30
2022-11-04T06:54:33.764Z,10.70
2022-11-04T06:55:33.731Z,12.10
2022-11-04T06:56:33.717Z,13.10
2022-11-04T06:57:33.686Z,12.80
2022-11-04T06:58:33.663Z,12.50
2022-11-04T06:59:33.634Z,10.90
2022-11-04T07:00:33.622Z,10.70
2022-11-04T07:01:33.751Z,10.50
2022-11-04T07:02:33.847Z,11.00
2022-11-04T07:03:33.546Z,11.90
2022-11-04T07:04:33.537Z,11.10
2022-11-04T07:05:33.493Z,15.40
2022-11-04T07:06:33.473Z,10.60
2022-11-04T07:07:33.444Z,12.60
2022-11-04T07:08:33.423Z,13.70
2022-11-04T07:09:33.397Z,10.60
2022-11-04T07:10:33.373Z,11.50
2022-11-04T07:11:33.345Z,14.10
2022-11-04T07:12:33.324Z,13.70
2022-11-04T07:13:33.300Z,14.50
2022-11-04T07:14:33.294Z,11.00
2022-11-04T07:15:33.261Z,12.10
2022-11-04T07:16:33.231Z,10.00
2022-11-04T07:17:33.211Z,12.90
2022-11-04T07:18:33.183Z,11.70
2022-11-04T07:19:33.160Z,10.80
2022-11-04T07:20:33.153Z,9.20
2022-11-04T07:21:33.107Z,11.80
2022-11-04T07:22:33.084Z,10.50
2022-11-04T07:23:33.055Z,10.00
2022-11-04T07:24:33.036Z,11.80
2022-11-04T07:25:33.014Z,7.40
2022-11-04T07:26:32.984Z,11.40
2022-11-04T07:27:32.966Z,14.70
2022-11-04T07:28:32.940Z,10.30
2022-11-04T07:29:32.913Z,12.70
2022-11-04T07:30:32.895Z,9.80
2022-11-04T07:31:32.866Z,9.80
2022-11-04T07:32:32.840Z,10.70
2022-11-04T07:33:32.820Z,9.50
2022-11-04T07:34:32.792Z,11.60
2022-11-04T07:35:32.766Z,9.90
2022-11-04T07:36:32.774Z,9.90
2022-11-04T07:37:32.724Z,8.60
2022-11-04T07:38:32.701Z,12.40
2022-11-04T07:39:32.676Z,14.90
2022-11-04T07:40:32.649Z,11.90
2022-11-04T07:41:32.624Z,9.40
2022-11-04T07:42:32.601Z,9.40
2022-11-04T07:43:32.578Z,9.60
2022-11-04T07:44:32.554Z,11.00
2022-11-04T07:45:32.532Z,12.10
2022-11-04T07:46:32.509Z,11.00
2022-11-04T07:47:32.481Z,10.00
2022-11-04T07:48:32.461Z,8.10
2022-11-04T07:49:32.468Z,11.30
2022-11-04T07:50:32.487Z,10.40
2022-11-04T07:51:32.397Z,8.20
2022-11-04T07:52:32.378Z,9.50
2022-11-04T07:53:32.337Z,9.70
2022-11-04T07:54:32.316Z,10.70
2022-11-04T07:55:32.288Z,10.50
2022-11-04T07:56:32.254Z,11.00
2022-11-04T07:57:32.237Z,11.00
2022-11-04T07:58:32.210Z,8.60
2022-11-04T07:59:32.188Z,9.80
2022-11-04T08:00:32.164Z,11.50
2022-11-04T08:01:32.147Z,10.70
2022-11-04T08:02:35.197Z,10.70
2022-11-04T08:03:32.220Z,8.30
2022-11-04T08:04:32.068Z,9.60
2022-11-04T08:05:32.048Z,9.00
2022-11-04T08:06:32.021Z,10.70
2022-11-04T08:07:31.992Z,7.60
2022-11-04T08:08:32.067Z,11.50
2022-11-04T08:09:31.946Z,9.00
2022-11-04T08:10:31.928Z,10.00
2022-11-04T08:11:31.898Z,9.60
2022-11-04T08:12:31.873Z,8.70
2022-11-04T08:13:31.854Z,11.10
2022-11-04T08:14:31.832Z,9.00
2022-11-04T08:15:31.804Z,8.50
2022-11-04T08:16:34.327Z,10.50
2022-11-04T08:17:31.757Z,9.00
2022-11-04T08:18:31.728Z,8.70
2022-11-04T08:19:31.703Z,12.80
2022-11-04T08:20:31.682Z,9.60
2022-11-04T08:21:31.662Z,9.40
2022-11-04T08:22:33.147Z,9.10
2022-11-04T08:23:31.612Z,11.00
2022-11-04T08:24:31.605Z,8.30
2022-11-04T08:25:31.561Z,8.60
2022-11-04T08:26:31.538Z,10.70
2022-11-04T08:27:31.530Z,7.70
2022-11-04T08:28:31.489Z,9.40
2022-11-04T08:29:31.480Z,12.00
2022-11-04T08:30:31.439Z,8.90
2022-11-04T08:31:31.425Z,7.80
2022-11-04T08:32:31.398Z,8.40
2022-11-04T08:33:31.373Z,10.00
2022-11-04T08:34:31.352Z,10.50
2022-11-04T08:35:31.319Z,10.00
2022-11-04T08:36:31.302Z,9.60
2022-11-04T08:37:31.272Z,10.90
2022-11-04T08:38:31.248Z,10.00
2022-11-04T08:39:31.228Z,10.80
2022-11-04T08:40:31.222Z,10.80
2022-11-04T08:41:31.182Z,8.80
2022-11-04T08:42:31.157Z,11.20
2022-11-04T08:43:31.136Z,12.30
2022-11-04T08:44:31.100Z,10.80
2022-11-04T08:45:33.699Z,8.00
2022-11-04T08:46:31.054Z,10.50
2022-11-04T08:47:31.030Z,9.00
2022-11-04T08:48:31.004Z,9.40
2022-11-04T08:49:30.986Z,7.70
2022-11-04T08:50:30.957Z,10.80
2022-11-04T08:51:30.938Z,11.30
2022-11-04T08:52:30.912Z,12.90
2022-11-04T08:53:30.888Z,8.60
2022-11-04T08:54:30.861Z,12.20
2022-11-04T08:55:30.845Z,13.00
2022-11-04T08:56:30.839Z,9.80
2022-11-04T08:57:30.791Z,9.50
2022-11-04T08:58:30.775Z,9.50
2022-11-04T08:59:30.746Z,9.10
2022-11-04T09:00:30.717Z,9.50
2022-11-04T09:01:35.411Z,11.20
2022-11-04T09:02:30.684Z,10.10
2022-11-04T09:03:30.696Z,8.20
2022-11-04T09:04:30.623Z,10.00
2022-11-04T09:05:30.603Z,8.70
2022-11-04T09:06:30.575Z,9.10
2022-11-04T09:07:30.548Z,9.10
2022-11-04T09:08:30.529Z,8.90
2022-11-04T09:09:30.507Z,11.20
2022-11-04T09:10:30.482Z,9.80
2022-11-04T09:11:30.460Z,10.50
2022-11-04T09:12:30.539Z,11.00
2022-11-04T09:13:33.308Z,9.10
2022-11-04T09:14:30.394Z,12.10
2022-11-04T09:15:30.364Z,11.30
2022-11-04T09:16:30.343Z,8.10
2022-11-04T09:17:30.317Z,10.60
2022-11-04T09:18:30.291Z,10.10
2022-11-04T09:19:30.267Z,11.40
2022-11-04T09:20:30.242Z,11.30
2022-11-04T09:21:30.219Z,9.30
2022-11-04T09:22:30.198Z,11.10
2022-11-04T09:23:30.172Z,8.20
2022-11-04T09:24:30.149Z,11.80
2022-11-04T09:25:30.127Z,9.00
2022-11-04T09:26:30.102Z,8.90
2022-11-04T09:27:30.078Z,9.90
2022-11-04T09:28:30.153Z,9.10
2022-11-04T09:29:30.026Z,12.80
2022-11-04T09:30:30.003Z,11.10
2022-11-04T09:31:29.985Z,10.60
2022-11-04T09:32:29.953Z,10.70
2022-11-04T09:33:29.934Z,9.00
2022-11-04T09:34:29.907Z,11.80
2022-11-04T09:35:29.891Z,9.10
2022-11-04T09:36:29.855Z,8.10
2022-11-04T09:37:29.834Z,10.70
2022-11-04T09:38:29.810Z,11.60
2022-11-04T09:39:29.780Z,8.70
2022-11-04T09:40:29.757Z,9.00
2022-11-04T09:41:29.732Z,7.70
2022-11-04T09:42:29.714Z,8.80
2022-11-04T09:43:29.687Z,10.80
2022-11-04T09:44:29.770Z,9.70
2022-11-04T09:45:29.649Z,10.90
2022-11-04T09:46:29.611Z,10.10
2022-11-04T09:47:29.589Z,10.10
2022-11-04T09:48:29.569Z,9.50
2022-11-04T09:49:29.546Z,9.80
2022-11-04T09:50:29.529Z,10.70
2022-11-04T09:51:53.154Z,9.20
2022-11-04T09:52:29.470Z,9.50
2022-11-04T09:53:29.450Z,9.20
2022-11-04T09:54:29.428Z,9.80
2022-11-04T09:55:29.402Z,9.40
2022-11-04T09:56:29.382Z,10.50
2022-11-04T09:57:29.442Z,9.70
2022-11-04T09:58:29.329Z,9.20
2022-11-04T09:59:29.308Z,8.80
2022-11-04T10:00:29.465Z,10.80
2022-11-04T10:01:29.415Z,11.00
2022-11-04T10:02:48.451Z,11.70
2022-11-04T10:03:29.217Z,12.30
2022-11-04T10:04:29.202Z,10.90
2022-11-04T10:05:29.169Z,11.10
2022-11-04T10:06:29.152Z,7.80
2022-11-04T10:07:29.127Z,9.50
2022-11-04T10:08:32.750Z,10.10
2022-11-04T10:09:29.086Z,14.20
2022-11-04T10:12:12.755Z,9.40
2022-11-04T10:13:12.725Z,9.90
2022-11-04T10:14:12.703Z,10.00
2022-11-04T10:15:12.676Z,12.70
2022-11-04T10:16:12.764Z,10.60
2022-11-04T10:17:12.640Z,10.40
2022-11-04T10:18:12.607Z,10.90
2022-11-04T10:19:12.581Z,10.80
2022-11-04T10:20:12.557Z,9.00
2022-11-04T10:21:12.539Z,10.20
2022-11-04T10:22:12.512Z,10.70
2022-11-04T10:23:12.648Z,11.10
2022-11-04T10:24:12.462Z,9.00
2022-11-04T10:25:12.438Z,11.20
2022-11-04T10:26:12.414Z,10.80
2022-11-04T10:27:12.390Z,8.90
2022-11-04T10:28:12.371Z,9.90
2022-11-04T10:29:12.344Z,14.10
2022-11-04T10:30:12.329Z,10.60
2022-11-04T10:31:12.299Z,11.40
2022-11-04T10:32:12.382Z,11.00
2022-11-04T10:33:12.654Z,9.90
2022-11-04T10:34:12.234Z,9.80
2022-11-04T10:35:12.202Z,11.00
2022-11-04T10:36:12.180Z,9.30
2022-11-04T10:37:12.151Z,10.90
2022-11-04T10:38:12.136Z,11.10
2022-11-04T10:39:12.107Z,9.20
2022-11-04T10:40:12.081Z,8.60
2022-11-04T10:41:12.064Z,8.50
2022-11-04T10:42:12.043Z,9.50
2022-11-04T10:43:12.362Z,10.60
2022-11-04T10:44:11.990Z,9.50
2022-11-04T10:45:11.973Z,11.40
2022-11-04T10:46:11.947Z,8.80
2022-11-04T10:47:11.920Z,10.90
2022-11-04T10:48:12.042Z,11.30
2022-11-04T10:49:11.869Z,11.60
2022-11-04T10:50:28.473Z,10.30
2022-11-04T10:51:11.838Z,11.30
2022-11-04T10:52:11.806Z,10.50
2022-11-04T10:53:12.033Z,11.70
2022-11-04T10:54:11.765Z,11.70
2022-11-04T10:55:11.728Z,9.00
2022-11-04T10:56:11.806Z,8.10
2022-11-04T10:57:11.685Z,9.00
2022-11-04T10:58:11.662Z,8.50
2022-11-04T10:59:15.054Z,9.50
2022-11-04T11:00:11.611Z,8.70
2022-11-04T11:01:14.995Z,11.20
2022-11-04T11:02:11.632Z,6.90
2022-11-04T11:03:11.827Z,10.50
2022-11-04T11:04:11.538Z,8.40
2022-11-04T11:05:11.502Z,7.80
2022-11-04T11:06:11.484Z,8.10
2022-11-04T11:07:11.448Z,9.70
2022-11-04T11:08:11.426Z,8.40
2022-11-04T11:09:11.400Z,10.80
2022-11-04T11:10:11.387Z,7.60
2022-11-04T11:11:11.351Z,9.70
2022-11-04T11:12:44.348Z,8.30
2022-11-04T11:13:11.720Z,9.70
2022-11-04T11:14:11.281Z,8.70
2022-11-04T11:15:14.627Z,9.10
2022-11-04T11:16:11.240Z,8.20
2022-11-04T11:17:11.212Z,9.50
2022-11-04T11:18:11.190Z,9.70
2022-11-04T11:19:11.168Z,9.50
2022-11-04T11:20:11.162Z,9.10
2022-11-04T11:21:11.120Z,10.30
2022-11-04T11:22:11.091Z,9.60
2022-11-04T11:23:11.541Z,10.10
2022-11-04T11:24:11.053Z,8.60
2022-11-04T11:25:11.034Z,6.90
2022-11-04T11:26:11.025Z,11.60
2022-11-04T11:27:10.980Z,8.20
2022-11-04T11:28:10.959Z,11.00
2022-11-04T11:29:10.940Z,10.00
2022-11-04T11:30:10.915Z,10.30
2022-11-04T11:31:10.887Z,9.70
2022-11-04T11:32:10.864Z,9.40
2022-11-04T11:33:11.417Z,10.50
2022-11-04T11:34:10.818Z,11.30
2022-11-04T11:35:11.874Z,9.80
2022-11-04T11:36:10.794Z,8.80
2022-11-04T11:37:10.758Z,11.30
2022-11-04T11:38:10.725Z,11.90
2022-11-04T11:39:10.702Z,10.90
2022-11-04T11:40:10.688Z,9.50
2022-11-04T11:41:24.278Z,9.30
2022-11-04T11:42:10.635Z,9.00
2022-11-04T11:43:10.920Z,10.10
2022-11-04T11:44:10.586Z,10.60
2022-11-04T11:45:10.564Z,9.30
2022-11-04T11:46:10.538Z,9.10
2022-11-04T11:47:10.515Z,10.30
2022-11-04T11:48:10.491Z,8.20
2022-11-04T11:49:10.464Z,10.00
2022-11-04T11:50:10.446Z,10.80
2022-11-04T11:51:10.418Z,11.80
2022-11-04T11:52:10.486Z,7.30
2022-11-04T11:53:10.774Z,12.00
2022-11-04T11:54:10.345Z,10.00
2022-11-04T11:55:10.329Z,8.20
2022-11-04T11:56:10.310Z,10.00
2022-11-04T11:57:15.244Z,11.30
2022-11-04T12:01:16.713Z,10.00
2022-11-04T12:02:10.390Z,10.10
2022-11-04T12:03:10.983Z,10.20
2022-11-04T12:06:18.083Z,9.40
2022-11-04T12:09:18.273Z,8.60
2022-11-04T12:10:18.128Z,8.30
2022-11-04T12:11:09.955Z,9.70
2022-11-04T12:12:09.931Z,8.90
2022-11-04T12:13:18.452Z,6.10
2022-11-04T12:14:09.879Z,10.10
2022-11-04T12:15:09.858Z,10.40
2022-11-04T12:16:09.842Z,7.10
2022-11-04T12:17:09.817Z,10.90
2022-11-04T12:18:09.795Z,9.70
2022-11-04T12:19:09.778Z,11.20
2022-11-04T12:20:14.827Z,9.30
2022-11-04T12:21:09.717Z,8.50
2022-11-04T12:22:09.709Z,10.00
2022-11-04T12:23:09.998Z,7.80
2022-11-04T12:24:09.675Z,8.60
2022-11-04T12:25:09.631Z,8.50
2022-11-04T12:26:09.606Z,9.10
2022-11-04T12:27:09.579Z,9.30
2022-11-04T12:28:09.556Z,9.10
2022-11-04T12:29:09.534Z,9.10
2022-11-04T12:30:09.514Z,9.20
2022-11-04T12:31:09.486Z,9.40
2022-11-04T12:32:09.466Z,9.90
2022-11-04T12:33:09.805Z,11.70
2022-11-04T12:34:09.418Z,10.10
2022-11-04T12:35:09.395Z,11.20
2022-11-04T12:36:09.374Z,7.80
2022-11-04T12:37:09.346Z,9.50
2022-11-04T12:38:09.335Z,13.20
2022-11-04T12:39:09.302Z,8.60
2022-11-04T12:40:09.309Z,9.40
2022-11-04T12:41:34.621Z,8.10
2022-11-04T12:42:29.646Z,8.30
2022-11-04T12:43:09.511Z,11.60
2022-11-04T12:44:09.186Z,9.70
2022-11-04T12:45:09.164Z,10.10
2022-11-04T12:46:09.140Z,9.10
2022-11-04T12:47:09.124Z,11.50
2022-11-04T12:48:09.118Z,10.10
2022-11-04T12:49:09.071Z,8.70
2022-11-04T12:50:09.052Z,10.90
2022-11-04T12:51:09.025Z,9.60
2022-11-04T12:52:09.004Z,12.80
2022-11-04T12:53:09.385Z,12.90
2022-11-04T12:54:08.954Z,7.90
2022-11-04T12:55:08.930Z,11.70
2022-11-04T12:56:08.930Z,11.00
2022-11-04T12:57:08.898Z,9.80
2022-11-04T12:58:08.865Z,9.50
2022-11-04T12:59:08.837Z,9.80
2022-11-04T13:00:08.816Z,9.00
2022-11-04T13:01:15.019Z,10.00
2022-11-04T13:02:08.924Z,6.80
2022-11-04T13:03:09.027Z,8.10
2022-11-04T13:04:08.728Z,10.00
2022-11-04T13:05:08.700Z,9.70
2022-11-04T13:06:08.678Z,9.20
2022-11-04T13:07:08.654Z,7.70
2022-11-04T13:08:12.959Z,10.50
2022-11-04T13:09:08.609Z,8.30
2022-11-04T13:10:08.589Z,9.20
2022-11-04T13:11:08.560Z,10.90
2022-11-04T13:12:08.560Z,10.20
2022-11-04T13:13:08.783Z,9.70
2022-11-04T13:14:08.494Z,10.60
2022-11-04T13:15:08.466Z,7.80
2022-11-04T13:16:08.444Z,8.90
2022-11-04T13:17:08.437Z,7.70
2022-11-04T13:18:08.398Z,7.30
2022-11-04T13:19:08.370Z,8.90